sensor_id;sensor_type;location;lat;lon;timestamp;P1;durP1;ratioP1;P2;durP2;ratioP2
46767;SDS011;69007;48.978;18.066;2023-04-03T00:00:07;3.45;;;3.05;;
46767;SDS011;69007;48.978;18.066;2023-04-03T00:02:33;3.47;;;2.85;;
46767;SDS011;69007;48.978;18.066;2023-04-03T00:04:59;4.20;;;3.38;;
46767;SDS011;69007;48.978;18.066;2023-04-03T00:07:24;3.10;;;2.53;;
46767;SDS011;69007;48.978;18.066;2023-04-03T00:09:50;3.17;;;2.78;;
46767;SDS011;69007;48.978;18.066;2023-04-03T00:12:15;3.03;;;2.78;;
46767;SDS011;69007;48.978;18.066;2023-04-03T00:14:41;3.28;;;2.92;;
46767;SDS011;69007;48.978;18.066;2023-04-03T00:17:06;3.28;;;2.78;;
46767;SDS011;69007;48.978;18.066;2023-04-03T00:19:31;3.20;;;2.90;;
46767;SDS011;69007;48.978;18.066;2023-04-03T00:21:57;2.88;;;2.58;;
46767;SDS011;69007;48.978;18.066;2023-04-03T00:24:22;4.57;;;2.40;;
46767;SDS011;69007;48.978;18.066;2023-04-03T00:26:47;2.70;;;2.50;;
46767;SDS011;69007;48.978;18.066;2023-04-03T00:29:13;3.60;;;2.95;;
46767;SDS011;69007;48.978;18.066;2023-04-03T00:31:38;3.05;;;2.75;;
46767;SDS011;69007;48.978;18.066;2023-04-03T00:34:03;3.65;;;2.90;;
46767;SDS011;69007;48.978;18.066;2023-04-03T00:36:29;4.13;;;3.05;;
46767;SDS011;69007;48.978;18.066;2023-04-03T00:38:54;3.35;;;2.58;;
46767;SDS011;69007;48.978;18.066;2023-04-03T00:41:19;3.75;;;3.10;;
46767;SDS011;69007;48.978;18.066;2023-04-03T00:43:46;3.97;;;3.20;;
46767;SDS011;69007;48.978;18.066;2023-04-03T00:46:11;8.00;;;3.58;;
46767;SDS011;69007;48.978;18.066;2023-04-03T00:48:40;3.53;;;2.97;;
46767;SDS011;69007;48.978;18.066;2023-04-03T00:51:30;3.05;;;2.75;;
46767;SDS011;69007;48.978;18.066;2023-04-03T00:53:55;5.65;;;3.13;;
46767;SDS011;69007;48.978;18.066;2023-04-03T00:56:25;2.78;;;2.53;;
46767;SDS011;69007;48.978;18.066;2023-04-03T00:59:27;3.00;;;2.70;;
46767;SDS011;69007;48.978;18.066;2023-04-03T01:01:52;3.42;;;3.10;;
46767;SDS011;69007;48.978;18.066;2023-04-03T01:04:29;3.47;;;2.80;;
46767;SDS011;69007;48.978;18.066;2023-04-03T01:06:56;3.22;;;2.92;;
46767;SDS011;69007;48.978;18.066;2023-04-03T01:09:26;3.70;;;3.30;;
46767;SDS011;69007;48.978;18.066;2023-04-03T01:11:51;4.25;;;3.05;;
46767;SDS011;69007;48.978;18.066;2023-04-03T01:14:17;5.78;;;3.78;;
46767;SDS011;69007;48.978;18.066;2023-04-03T01:16:42;3.60;;;2.90;;
46767;SDS011;69007;48.978;18.066;2023-04-03T01:19:08;3.38;;;2.95;;
46767;SDS011;69007;48.978;18.066;2023-04-03T01:21:47;4.00;;;3.08;;
46767;SDS011;69007;48.978;18.066;2023-04-03T01:24:36;3.25;;;2.95;;
46767;SDS011;69007;48.978;18.066;2023-04-03T01:27:06;3.10;;;2.80;;
46767;SDS011;69007;48.978;18.066;2023-04-03T01:29:35;2.72;;;2.53;;
46767;SDS011;69007;48.978;18.066;2023-04-03T01:32:02;3.10;;;2.80;;
46767;SDS011;69007;48.978;18.066;2023-04-03T01:34:28;3.30;;;3.00;;
46767;SDS011;69007;48.978;18.066;2023-04-03T01:36:55;3.42;;;2.80;;
46767;SDS011;69007;48.978;18.066;2023-04-03T01:39:21;3.20;;;2.90;;
46767;SDS011;69007;48.978;18.066;2023-04-03T01:41:47;3.40;;;3.05;;
46767;SDS011;69007;48.978;18.066;2023-04-03T01:44:13;3.30;;;2.78;;
46767;SDS011;69007;48.978;18.066;2023-04-03T01:46:38;4.50;;;2.72;;
46767;SDS011;69007;48.978;18.066;2023-04-03T01:49:04;3.38;;;3.05;;
46767;SDS011;69007;48.978;18.066;2023-04-03T01:51:30;2.90;;;2.60;;
46767;SDS011;69007;48.978;18.066;2023-04-03T01:53:55;4.88;;;3.33;;
46767;SDS011;69007;48.978;18.066;2023-04-03T01:56:21;3.35;;;2.75;;
46767;SDS011;69007;48.978;18.066;2023-04-03T01:58:47;4.35;;;2.80;;
46767;SDS011;69007;48.978;18.066;2023-04-03T02:01:12;2.60;;;2.40;;
46767;SDS011;69007;48.978;18.066;2023-04-03T02:03:37;3.50;;;2.83;;
46767;SDS011;69007;48.978;18.066;2023-04-03T02:06:03;3.00;;;2.70;;
46767;SDS011;69007;48.978;18.066;2023-04-03T02:08:28;2.90;;;2.67;;
46767;SDS011;69007;48.978;18.066;2023-04-03T02:10:54;3.38;;;2.38;;
46767;SDS011;69007;48.978;18.066;2023-04-03T02:13:19;2.72;;;2.53;;
46767;SDS011;69007;48.978;18.066;2023-04-03T02:15:45;2.90;;;2.60;;
46767;SDS011;69007;48.978;18.066;2023-04-03T02:18:11;3.05;;;2.13;;
46767;SDS011;69007;48.978;18.066;2023-04-03T02:20:36;3.50;;;2.30;;
46767;SDS011;69007;48.978;18.066;2023-04-03T02:23:02;2.50;;;2.30;;
46767;SDS011;69007;48.978;18.066;2023-04-03T02:25:28;3.17;;;2.58;;
46767;SDS011;69007;48.978;18.066;2023-04-03T02:27:55;3.70;;;2.70;;
46767;SDS011;69007;48.978;18.066;2023-04-03T02:30:20;2.92;;;2.50;;
46767;SDS011;69007;48.978;18.066;2023-04-03T02:32:45;3.22;;;2.80;;
46767;SDS011;69007;48.978;18.066;2023-04-03T02:35:11;2.65;;;2.45;;
46767;SDS011;69007;48.978;18.066;2023-04-03T02:37:36;3.97;;;2.85;;
46767;SDS011;69007;48.978;18.066;2023-04-03T02:40:02;3.00;;;2.70;;
46767;SDS011;69007;48.978;18.066;2023-04-03T02:42:28;3.15;;;2.65;;
46767;SDS011;69007;48.978;18.066;2023-04-03T02:44:54;3.47;;;2.70;;
46767;SDS011;69007;48.978;18.066;2023-04-03T02:47:20;3.40;;;2.83;;
46767;SDS011;69007;48.978;18.066;2023-04-03T02:49:45;4.35;;;3.10;;
46767;SDS011;69007;48.978;18.066;2023-04-03T02:52:12;6.00;;;3.10;;
46767;SDS011;69007;48.978;18.066;2023-04-03T02:54:37;4.03;;;3.65;;
46767;SDS011;69007;48.978;18.066;2023-04-03T02:57:03;4.70;;;3.40;;
46767;SDS011;69007;48.978;18.066;2023-04-03T02:59:28;3.92;;;3.55;;
46767;SDS011;69007;48.978;18.066;2023-04-03T03:01:53;4.13;;;3.17;;
46767;SDS011;69007;48.978;18.066;2023-04-03T03:04:20;5.90;;;3.90;;
46767;SDS011;69007;48.978;18.066;2023-04-03T03:06:45;4.47;;;3.55;;
46767;SDS011;69007;48.978;18.066;2023-04-03T03:09:11;3.28;;;2.97;;
46767;SDS011;69007;48.978;18.066;2023-04-03T03:11:38;3.65;;;3.35;;
46767;SDS011;69007;48.978;18.066;2023-04-03T03:14:03;4.70;;;3.17;;
46767;SDS011;69007;48.978;18.066;2023-04-03T03:16:29;4.15;;;3.25;;
46767;SDS011;69007;48.978;18.066;2023-04-03T03:18:54;3.55;;;3.17;;
46767;SDS011;69007;48.978;18.066;2023-04-03T03:21:20;3.88;;;3.33;;
46767;SDS011;69007;48.978;18.066;2023-04-03T03:23:45;3.75;;;2.97;;
46767;SDS011;69007;48.978;18.066;2023-04-03T03:26:11;3.45;;;3.13;;
46767;SDS011;69007;48.978;18.066;2023-04-03T03:28:37;3.30;;;3.00;;
46767;SDS011;69007;48.978;18.066;2023-04-03T03:31:03;3.40;;;3.05;;
46767;SDS011;69007;48.978;18.066;2023-04-03T03:33:29;4.10;;;3.78;;
46767;SDS011;69007;48.978;18.066;2023-04-03T03:35:55;3.75;;;3.10;;
46767;SDS011;69007;48.978;18.066;2023-04-03T03:38:20;3.65;;;2.90;;
46767;SDS011;69007;48.978;18.066;2023-04-03T03:40:47;5.75;;;3.72;;
46767;SDS011;69007;48.978;18.066;2023-04-03T03:43:13;4.35;;;3.28;;
46767;SDS011;69007;48.978;18.066;2023-04-03T03:45:39;4.03;;;3.63;;
46767;SDS011;69007;48.978;18.066;2023-04-03T03:48:04;5.00;;;3.47;;
46767;SDS011;69007;48.978;18.066;2023-04-03T03:50:30;3.50;;;3.20;;
46767;SDS011;69007;48.978;18.066;2023-04-03T03:52:55;3.67;;;3.03;;
46767;SDS011;69007;48.978;18.066;2023-04-03T03:55:21;3.37;;;3.07;;
46767;SDS011;69007;48.978;18.066;2023-04-03T03:57:46;3.50;;;3.20;;
46767;SDS011;69007;48.978;18.066;2023-04-03T04:00:12;3.20;;;2.90;;
46767;SDS011;69007;48.978;18.066;2023-04-03T04:02:38;3.60;;;3.20;;
46767;SDS011;69007;48.978;18.066;2023-04-03T04:05:03;3.53;;;3.22;;
46767;SDS011;69007;48.978;18.066;2023-04-03T04:07:29;3.90;;;3.50;;
46767;SDS011;69007;48.978;18.066;2023-04-03T04:09:54;4.13;;;3.10;;
46767;SDS011;69007;48.978;18.066;2023-04-03T04:12:20;4.40;;;3.35;;
46767;SDS011;69007;48.978;18.066;2023-04-03T04:14:45;3.83;;;3.42;;
46767;SDS011;69007;48.978;18.066;2023-04-03T04:17:11;3.83;;;3.17;;
46767;SDS011;69007;48.978;18.066;2023-04-03T04:19:40;3.83;;;3.35;;
46767;SDS011;69007;48.978;18.066;2023-04-03T04:22:05;3.63;;;3.33;;
46767;SDS011;69007;48.978;18.066;2023-04-03T04:24:31;6.63;;;3.70;;
46767;SDS011;69007;48.978;18.066;2023-04-03T04:26:56;4.30;;;3.55;;
46767;SDS011;69007;48.978;18.066;2023-04-03T04:29:21;4.40;;;3.35;;
46767;SDS011;69007;48.978;18.066;2023-04-03T04:31:47;4.30;;;3.90;;
46767;SDS011;69007;48.978;18.066;2023-04-03T04:34:12;4.53;;;3.50;;
46767;SDS011;69007;48.978;18.066;2023-04-03T04:36:40;5.05;;;3.35;;
46767;SDS011;69007;48.978;18.066;2023-04-03T04:39:06;4.13;;;3.50;;
46767;SDS011;69007;48.978;18.066;2023-04-03T04:41:31;5.30;;;3.80;;
46767;SDS011;69007;48.978;18.066;2023-04-03T04:43:57;4.95;;;4.30;;
46767;SDS011;69007;48.978;18.066;2023-04-03T04:46:23;6.25;;;3.78;;
46767;SDS011;69007;48.978;18.066;2023-04-03T04:48:48;5.75;;;4.40;;
46767;SDS011;69007;48.978;18.066;2023-04-03T04:51:14;5.00;;;4.03;;
46767;SDS011;69007;48.978;18.066;2023-04-03T04:53:40;5.28;;;4.15;;
46767;SDS011;69007;48.978;18.066;2023-04-03T04:56:06;5.13;;;4.30;;
46767;SDS011;69007;48.978;18.066;2023-04-03T04:58:31;5.68;;;4.05;;
46767;SDS011;69007;48.978;18.066;2023-04-03T05:01:04;6.40;;;4.13;;
46767;SDS011;69007;48.978;18.066;2023-04-03T05:03:31;8.85;;;4.55;;
46767;SDS011;69007;48.978;18.066;2023-04-03T05:05:57;6.10;;;4.25;;
46767;SDS011;69007;48.978;18.066;2023-04-03T05:08:23;5.82;;;4.50;;
46767;SDS011;69007;48.978;18.066;2023-04-03T05:10:49;5.68;;;4.70;;
46767;SDS011;69007;48.978;18.066;2023-04-03T05:13:14;5.60;;;4.53;;
46767;SDS011;69007;48.978;18.066;2023-04-03T05:15:40;6.45;;;4.28;;
46767;SDS011;69007;48.978;18.066;2023-04-03T05:18:05;6.70;;;4.47;;
46767;SDS011;69007;48.978;18.066;2023-04-03T05:20:31;7.90;;;4.85;;
46767;SDS011;69007;48.978;18.066;2023-04-03T05:22:57;9.05;;;4.88;;
46767;SDS011;69007;48.978;18.066;2023-04-03T05:25:22;7.05;;;5.15;;
46767;SDS011;69007;48.978;18.066;2023-04-03T05:27:48;5.55;;;5.05;;
46767;SDS011;69007;48.978;18.066;2023-04-03T05:30:14;7.20;;;5.40;;
46767;SDS011;69007;48.978;18.066;2023-04-03T05:32:39;6.85;;;5.38;;
46767;SDS011;69007;48.978;18.066;2023-04-03T05:35:05;8.10;;;5.80;;
46767;SDS011;69007;48.978;18.066;2023-04-03T05:37:32;7.22;;;6.10;;
46767;SDS011;69007;48.978;18.066;2023-04-03T05:39:58;7.07;;;6.00;;
46767;SDS011;69007;48.978;18.066;2023-04-03T05:42:23;6.80;;;5.72;;
46767;SDS011;69007;48.978;18.066;2023-04-03T05:44:48;8.88;;;6.22;;
46767;SDS011;69007;48.978;18.066;2023-04-03T05:47:15;8.70;;;6.00;;
46767;SDS011;69007;48.978;18.066;2023-04-03T05:49:40;8.82;;;5.80;;
46767;SDS011;69007;48.978;18.066;2023-04-03T05:52:10;8.18;;;6.13;;
46767;SDS011;69007;48.978;18.066;2023-04-03T05:54:43;8.13;;;6.28;;
46767;SDS011;69007;48.978;18.066;2023-04-03T05:57:11;10.23;;;6.50;;
46767;SDS011;69007;48.978;18.066;2023-04-03T05:59:37;8.60;;;6.85;;
46767;SDS011;69007;48.978;18.066;2023-04-03T06:02:02;8.68;;;6.82;;
46767;SDS011;69007;48.978;18.066;2023-04-03T06:04:28;9.75;;;7.43;;
46767;SDS011;69007;48.978;18.066;2023-04-03T06:06:54;12.15;;;7.03;;
46767;SDS011;69007;48.978;18.066;2023-04-03T06:09:23;15.38;;;7.55;;
46767;SDS011;69007;48.978;18.066;2023-04-03T06:11:50;8.52;;;6.72;;
46767;SDS011;69007;48.978;18.066;2023-04-03T06:14:16;9.00;;;6.55;;
46767;SDS011;69007;48.978;18.066;2023-04-03T06:16:42;12.82;;;6.70;;
46767;SDS011;69007;48.978;18.066;2023-04-03T06:19:08;9.20;;;6.68;;
46767;SDS011;69007;48.978;18.066;2023-04-03T06:21:34;9.52;;;6.47;;
46767;SDS011;69007;48.978;18.066;2023-04-03T06:24:00;12.63;;;7.60;;
46767;SDS011;69007;48.978;18.066;2023-04-03T06:26:27;11.15;;;7.97;;
46767;SDS011;69007;48.978;18.066;2023-04-03T06:28:52;10.63;;;6.32;;
46767;SDS011;69007;48.978;18.066;2023-04-03T06:31:17;6.97;;;5.47;;
46767;SDS011;69007;48.978;18.066;2023-04-03T06:33:43;6.38;;;5.07;;
46767;SDS011;69007;48.978;18.066;2023-04-03T06:36:09;8.27;;;5.30;;
46767;SDS011;69007;48.978;18.066;2023-04-03T06:38:36;7.88;;;5.10;;
46767;SDS011;69007;48.978;18.066;2023-04-03T06:41:01;9.73;;;5.60;;
46767;SDS011;69007;48.978;18.066;2023-04-03T06:43:27;6.90;;;5.05;;
46767;SDS011;69007;48.978;18.066;2023-04-03T06:45:52;8.57;;;4.95;;
46767;SDS011;69007;48.978;18.066;2023-04-03T06:48:18;8.35;;;4.65;;
46767;SDS011;69007;48.978;18.066;2023-04-03T06:50:43;8.32;;;4.95;;
46767;SDS011;69007;48.978;18.066;2023-04-03T06:53:08;7.70;;;4.50;;
46767;SDS011;69007;48.978;18.066;2023-04-03T06:55:34;8.63;;;5.20;;
46767;SDS011;69007;48.978;18.066;2023-04-03T06:58:00;6.28;;;5.05;;
46767;SDS011;69007;48.978;18.066;2023-04-03T07:00:26;6.95;;;4.15;;
46767;SDS011;69007;48.978;18.066;2023-04-03T07:02:52;5.88;;;4.68;;
46767;SDS011;69007;48.978;18.066;2023-04-03T07:05:18;5.38;;;3.67;;
46767;SDS011;69007;48.978;18.066;2023-04-03T07:07:43;8.95;;;3.80;;
46767;SDS011;69007;48.978;18.066;2023-04-03T07:10:09;5.43;;;3.60;;
46767;SDS011;69007;48.978;18.066;2023-04-03T07:12:36;5.60;;;3.72;;
46767;SDS011;69007;48.978;18.066;2023-04-03T07:15:02;6.20;;;3.53;;
46767;SDS011;69007;48.978;18.066;2023-04-03T07:17:28;5.70;;;3.15;;
46767;SDS011;69007;48.978;18.066;2023-04-03T07:19:54;5.28;;;3.53;;
46767;SDS011;69007;48.978;18.066;2023-04-03T07:22:19;5.03;;;3.00;;
46767;SDS011;69007;48.978;18.066;2023-04-03T07:24:45;5.30;;;3.88;;
46767;SDS011;69007;48.978;18.066;2023-04-03T07:27:11;11.40;;;3.85;;
46767;SDS011;69007;48.978;18.066;2023-04-03T07:29:37;4.55;;;3.33;;
46767;SDS011;69007;48.978;18.066;2023-04-03T07:32:04;5.05;;;3.42;;
46767;SDS011;69007;48.978;18.066;2023-04-03T07:34:30;5.30;;;3.35;;
46767;SDS011;69007;48.978;18.066;2023-04-03T07:36:57;4.80;;;3.50;;
46767;SDS011;69007;48.978;18.066;2023-04-03T07:39:23;3.78;;;3.10;;
46767;SDS011;69007;48.978;18.066;2023-04-03T07:41:48;7.43;;;3.67;;
46767;SDS011;69007;48.978;18.066;2023-04-03T07:44:13;8.05;;;3.85;;
46767;SDS011;69007;48.978;18.066;2023-04-03T07:46:39;4.47;;;3.33;;
46767;SDS011;69007;48.978;18.066;2023-04-03T07:49:05;4.57;;;3.30;;
46767;SDS011;69007;48.978;18.066;2023-04-03T07:51:30;3.70;;;3.22;;
46767;SDS011;69007;48.978;18.066;2023-04-03T07:53:56;4.35;;;3.08;;
46767;SDS011;69007;48.978;18.066;2023-04-03T07:56:21;8.27;;;4.30;;
46767;SDS011;69007;48.978;18.066;2023-04-03T07:58:47;6.25;;;3.70;;
46767;SDS011;69007;48.978;18.066;2023-04-03T08:01:13;5.72;;;3.25;;
46767;SDS011;69007;48.978;18.066;2023-04-03T08:03:38;4.28;;;3.40;;
46767;SDS011;69007;48.978;18.066;2023-04-03T08:06:05;5.47;;;3.33;;
46767;SDS011;69007;48.978;18.066;2023-04-03T08:08:32;6.82;;;3.92;;
46767;SDS011;69007;48.978;18.066;2023-04-03T08:10:59;5.43;;;3.80;;
46767;SDS011;69007;48.978;18.066;2023-04-03T08:13:26;9.00;;;3.70;;
46767;SDS011;69007;48.978;18.066;2023-04-03T08:15:51;5.43;;;3.00;;
46767;SDS011;69007;48.978;18.066;2023-04-03T08:18:17;5.90;;;3.67;;
46767;SDS011;69007;48.978;18.066;2023-04-03T08:20:43;4.47;;;3.25;;
46767;SDS011;69007;48.978;18.066;2023-04-03T08:23:09;8.13;;;2.95;;
46767;SDS011;69007;48.978;18.066;2023-04-03T08:25:38;6.00;;;3.45;;
46767;SDS011;69007;48.978;18.066;2023-04-03T08:28:05;4.00;;;3.10;;
46767;SDS011;69007;48.978;18.066;2023-04-03T08:30:30;5.65;;;2.78;;
46767;SDS011;69007;48.978;18.066;2023-04-03T08:32:56;4.28;;;3.58;;
46767;SDS011;69007;48.978;18.066;2023-04-03T08:35:21;6.45;;;3.70;;
46767;SDS011;69007;48.978;18.066;2023-04-03T08:37:46;6.10;;;3.72;;
46767;SDS011;69007;48.978;18.066;2023-04-03T08:40:15;3.35;;;2.90;;
46767;SDS011;69007;48.978;18.066;2023-04-03T08:45:45;6.90;;;4.40;;
46767;SDS011;69007;48.978;18.066;2023-04-03T08:48:15;4.90;;;2.95;;
46767;SDS011;69007;48.978;18.066;2023-04-03T08:50:46;4.88;;;3.35;;
46767;SDS011;69007;48.978;18.066;2023-04-03T08:53:15;5.55;;;3.55;;
46767;SDS011;69007;48.978;18.066;2023-04-03T08:55:53;5.65;;;3.08;;
46767;SDS011;69007;48.978;18.066;2023-04-03T08:58:24;5.85;;;3.13;;
46767;SDS011;69007;48.978;18.066;2023-04-03T09:00:58;3.03;;;2.67;;
46767;SDS011;69007;48.978;18.066;2023-04-03T09:03:29;4.35;;;2.88;;
46767;SDS011;69007;48.978;18.066;2023-04-03T09:06:15;7.20;;;2.97;;
46767;SDS011;69007;48.978;18.066;2023-04-03T09:08:47;5.90;;;3.47;;
46767;SDS011;69007;48.978;18.066;2023-04-03T09:11:22;3.42;;;2.75;;
46767;SDS011;69007;48.978;18.066;2023-04-03T09:16:20;8.45;;;3.08;;
46767;SDS011;69007;48.978;18.066;2023-04-03T09:19:11;6.28;;;3.25;;
46767;SDS011;69007;48.978;18.066;2023-04-03T09:21:45;3.72;;;2.88;;
46767;SDS011;69007;48.978;18.066;2023-04-03T09:24:12;4.75;;;2.78;;
46767;SDS011;69007;48.978;18.066;2023-04-03T09:27:13;4.93;;;3.05;;
46767;SDS011;69007;48.978;18.066;2023-04-03T09:29:37;3.20;;;2.83;;
46767;SDS011;69007;48.978;18.066;2023-04-03T09:32:22;4.05;;;3.13;;
46767;SDS011;69007;48.978;18.066;2023-04-03T09:34:56;3.13;;;2.67;;
46767;SDS011;69007;48.978;18.066;2023-04-03T09:37:43;3.08;;;2.80;;
46767;SDS011;69007;48.978;18.066;2023-04-03T09:40:30;5.60;;;3.40;;
46767;SDS011;69007;48.978;18.066;2023-04-03T09:43:26;4.15;;;3.30;;
46767;SDS011;69007;48.978;18.066;2023-04-03T09:45:56;5.53;;;3.78;;
46767;SDS011;69007;48.978;18.066;2023-04-03T09:51:15;4.18;;;2.65;;
46767;SDS011;69007;48.978;18.066;2023-04-03T09:53:41;6.05;;;3.78;;
46767;SDS011;69007;48.978;18.066;2023-04-03T09:58:49;3.55;;;2.83;;
46767;SDS011;69007;48.978;18.066;2023-04-03T10:04:08;4.13;;;2.95;;
46767;SDS011;69007;48.978;18.066;2023-04-03T10:06:42;3.50;;;2.70;;
46767;SDS011;69007;48.978;18.066;2023-04-03T10:12:03;3.65;;;2.22;;
46767;SDS011;69007;48.978;18.066;2023-04-03T10:14:33;2.60;;;2.33;;
46767;SDS011;69007;48.978;18.066;2023-04-03T10:19:41;4.55;;;3.35;;
46767;SDS011;69007;48.978;18.066;2023-04-03T10:33:13;3.83;;;2.85;;
46767;SDS011;69007;48.978;18.066;2023-04-03T10:38:18;4.80;;;2.80;;
46767;SDS011;69007;48.978;18.066;2023-04-03T10:43:48;3.95;;;2.58;;
46767;SDS011;69007;48.978;18.066;2023-04-03T10:52:14;4.55;;;2.47;;
46767;SDS011;69007;48.978;18.066;2023-04-03T10:55:00;6.57;;;2.85;;
46767;SDS011;69007;48.978;18.066;2023-04-03T10:57:34;3.85;;;2.42;;
46767;SDS011;69007;48.978;18.066;2023-04-03T11:00:04;4.90;;;3.00;;
46767;SDS011;69007;48.978;18.066;2023-04-03T11:05:13;5.68;;;3.00;;
46767;SDS011;69007;48.978;18.066;2023-04-03T11:07:45;6.90;;;3.05;;
46767;SDS011;69007;48.978;18.066;2023-04-03T11:13:34;3.80;;;2.08;;
46767;SDS011;69007;48.978;18.066;2023-04-03T11:16:14;5.68;;;2.80;;
46767;SDS011;69007;48.978;18.066;2023-04-03T11:21:29;5.53;;;3.33;;
46767;SDS011;69007;48.978;18.066;2023-04-03T11:24:00;4.90;;;3.15;;
46767;SDS011;69007;48.978;18.066;2023-04-03T11:26:30;7.78;;;3.40;;
46767;SDS011;69007;48.978;18.066;2023-04-03T11:29:03;7.00;;;3.58;;
46767;SDS011;69007;48.978;18.066;2023-04-03T11:31:38;7.07;;;2.63;;
46767;SDS011;69007;48.978;18.066;2023-04-03T11:34:34;6.25;;;3.33;;
46767;SDS011;69007;48.978;18.066;2023-04-03T11:37:05;5.15;;;2.95;;
46767;SDS011;69007;48.978;18.066;2023-04-03T11:39:38;8.00;;;3.20;;
46767;SDS011;69007;48.978;18.066;2023-04-03T11:42:22;9.80;;;2.80;;
46767;SDS011;69007;48.978;18.066;2023-04-03T11:47:44;5.35;;;2.90;;
46767;SDS011;69007;48.978;18.066;2023-04-03T11:52:59;3.97;;;2.42;;
46767;SDS011;69007;48.978;18.066;2023-04-03T12:04:04;3.65;;;2.33;;
46767;SDS011;69007;48.978;18.066;2023-04-03T12:46:23;6.82;;;2.20;;
46767;SDS011;69007;48.978;18.066;2023-04-03T12:48:55;4.25;;;2.40;;
46767;SDS011;69007;48.978;18.066;2023-04-03T12:51:34;2.17;;;1.67;;
46767;SDS011;69007;48.978;18.066;2023-04-03T12:54:39;3.17;;;1.90;;
46767;SDS011;69007;48.978;18.066;2023-04-03T12:59:41;5.78;;;2.47;;
46767;SDS011;69007;48.978;18.066;2023-04-03T13:04:43;2.72;;;1.67;;
46767;SDS011;69007;48.978;18.066;2023-04-03T13:07:31;5.25;;;1.83;;
46767;SDS011;69007;48.978;18.066;2023-04-03T13:09:59;2.97;;;2.03;;
46767;SDS011;69007;48.978;18.066;2023-04-03T13:15:26;2.97;;;2.05;;
46767;SDS011;69007;48.978;18.066;2023-04-03T13:17:54;4.20;;;2.55;;
46767;SDS011;69007;48.978;18.066;2023-04-03T13:20:22;3.10;;;1.60;;
46767;SDS011;69007;48.978;18.066;2023-04-03T13:25:29;4.78;;;2.20;;
46767;SDS011;69007;48.978;18.066;2023-04-03T13:27:58;3.88;;;2.25;;
46767;SDS011;69007;48.978;18.066;2023-04-03T13:30:29;2.88;;;2.20;;
46767;SDS011;69007;48.978;18.066;2023-04-03T13:37:57;3.75;;;2.13;;
46767;SDS011;69007;48.978;18.066;2023-04-03T13:40:25;5.47;;;2.30;;
46767;SDS011;69007;48.978;18.066;2023-04-03T13:43:05;5.57;;;2.83;;
46767;SDS011;69007;48.978;18.066;2023-04-03T13:45:39;4.95;;;2.00;;
46767;SDS011;69007;48.978;18.066;2023-04-03T13:51:03;5.85;;;2.28;;
46767;SDS011;69007;48.978;18.066;2023-04-03T13:54:00;5.10;;;3.03;;
46767;SDS011;69007;48.978;18.066;2023-04-03T13:56:38;4.53;;;2.30;;
46767;SDS011;69007;48.978;18.066;2023-04-03T14:04:47;6.85;;;2.80;;
46767;SDS011;69007;48.978;18.066;2023-04-03T14:07:16;2.85;;;2.17;;
46767;SDS011;69007;48.978;18.066;2023-04-03T14:09:43;3.80;;;1.98;;
46767;SDS011;69007;48.978;18.066;2023-04-03T14:12:12;3.33;;;2.47;;
46767;SDS011;69007;48.978;18.066;2023-04-03T14:14:42;3.78;;;2.38;;
46767;SDS011;69007;48.978;18.066;2023-04-03T14:17:15;5.65;;;2.50;;
46767;SDS011;69007;48.978;18.066;2023-04-03T14:19:43;3.73;;;2.53;;
46767;SDS011;69007;48.978;18.066;2023-04-03T14:22:17;3.30;;;1.90;;
46767;SDS011;69007;48.978;18.066;2023-04-03T14:24:43;4.78;;;2.28;;
46767;SDS011;69007;48.978;18.066;2023-04-03T14:27:20;3.70;;;2.30;;
46767;SDS011;69007;48.978;18.066;2023-04-03T14:29:48;3.72;;;2.47;;
46767;SDS011;69007;48.978;18.066;2023-04-03T14:32:15;4.68;;;2.40;;
46767;SDS011;69007;48.978;18.066;2023-04-03T14:34:42;4.50;;;2.40;;
46767;SDS011;69007;48.978;18.066;2023-04-03T14:37:09;8.18;;;2.42;;
46767;SDS011;69007;48.978;18.066;2023-04-03T14:39:37;3.53;;;2.17;;
46767;SDS011;69007;48.978;18.066;2023-04-03T14:42:02;3.95;;;2.40;;
46767;SDS011;69007;48.978;18.066;2023-04-03T14:44:27;4.90;;;2.53;;
46767;SDS011;69007;48.978;18.066;2023-04-03T14:46:53;3.35;;;2.40;;
46767;SDS011;69007;48.978;18.066;2023-04-03T14:49:22;4.53;;;2.45;;
46767;SDS011;69007;48.978;18.066;2023-04-03T14:51:51;4.78;;;2.85;;
46767;SDS011;69007;48.978;18.066;2023-04-03T14:54:19;9.00;;;4.30;;
46767;SDS011;69007;48.978;18.066;2023-04-03T14:56:50;5.20;;;2.72;;
46767;SDS011;69007;48.978;18.066;2023-04-03T14:59:16;3.00;;;2.13;;
46767;SDS011;69007;48.978;18.066;2023-04-03T15:01:44;3.28;;;2.17;;
46767;SDS011;69007;48.978;18.066;2023-04-03T15:04:11;4.10;;;2.40;;
46767;SDS011;69007;48.978;18.066;2023-04-03T15:06:38;6.57;;;2.65;;
46767;SDS011;69007;48.978;18.066;2023-04-03T15:09:03;4.03;;;2.50;;
46767;SDS011;69007;48.978;18.066;2023-04-03T15:11:29;4.03;;;2.53;;
46767;SDS011;69007;48.978;18.066;2023-04-03T15:13:54;5.05;;;2.70;;
46767;SDS011;69007;48.978;18.066;2023-04-03T15:16:20;5.93;;;2.55;;
46767;SDS011;69007;48.978;18.066;2023-04-03T15:18:46;4.18;;;2.63;;
46767;SDS011;69007;48.978;18.066;2023-04-03T15:21:12;5.82;;;3.13;;
46767;SDS011;69007;48.978;18.066;2023-04-03T15:23:38;4.80;;;2.95;;
46767;SDS011;69007;48.978;18.066;2023-04-03T15:26:04;4.68;;;2.45;;
46767;SDS011;69007;48.978;18.066;2023-04-03T15:28:30;4.70;;;2.95;;
46767;SDS011;69007;48.978;18.066;2023-04-03T15:30:57;5.78;;;3.40;;
46767;SDS011;69007;48.978;18.066;2023-04-03T15:33:22;7.35;;;2.50;;
46767;SDS011;69007;48.978;18.066;2023-04-03T15:35:48;6.57;;;2.88;;
46767;SDS011;69007;48.978;18.066;2023-04-03T15:38:13;6.53;;;2.92;;
46767;SDS011;69007;48.978;18.066;2023-04-03T15:40:38;5.25;;;2.70;;
46767;SDS011;69007;48.978;18.066;2023-04-03T15:43:05;4.25;;;3.08;;
46767;SDS011;69007;48.978;18.066;2023-04-03T15:45:31;5.88;;;2.38;;
46767;SDS011;69007;48.978;18.066;2023-04-03T15:47:58;4.78;;;2.53;;
46767;SDS011;69007;48.978;18.066;2023-04-03T15:50:24;4.22;;;2.60;;
46767;SDS011;69007;48.978;18.066;2023-04-03T15:52:50;6.82;;;2.95;;
46767;SDS011;69007;48.978;18.066;2023-04-03T15:55:22;7.05;;;3.28;;
46767;SDS011;69007;48.978;18.066;2023-04-03T15:57:48;4.68;;;3.00;;
46767;SDS011;69007;48.978;18.066;2023-04-03T16:00:14;5.30;;;2.42;;
46767;SDS011;69007;48.978;18.066;2023-04-03T16:02:40;7.72;;;3.13;;
46767;SDS011;69007;48.978;18.066;2023-04-03T16:05:06;4.90;;;2.55;;
46767;SDS011;69007;48.978;18.066;2023-04-03T16:07:32;5.95;;;3.08;;
46767;SDS011;69007;48.978;18.066;2023-04-03T16:09:58;4.35;;;2.70;;
46767;SDS011;69007;48.978;18.066;2023-04-03T16:12:23;6.40;;;2.95;;
46767;SDS011;69007;48.978;18.066;2023-04-03T16:14:48;5.50;;;2.75;;
46767;SDS011;69007;48.978;18.066;2023-04-03T16:17:14;5.45;;;3.38;;
46767;SDS011;69007;48.978;18.066;2023-04-03T16:19:40;6.18;;;2.65;;
46767;SDS011;69007;48.978;18.066;2023-04-03T16:22:05;6.68;;;2.88;;
46767;SDS011;69007;48.978;18.066;2023-04-03T16:24:30;4.43;;;2.72;;
46767;SDS011;69007;48.978;18.066;2023-04-03T16:26:57;6.85;;;3.50;;
46767;SDS011;69007;48.978;18.066;2023-04-03T16:29:22;8.70;;;2.78;;
46767;SDS011;69007;48.978;18.066;2023-04-03T16:31:47;6.60;;;3.35;;
46767;SDS011;69007;48.978;18.066;2023-04-03T16:34:13;3.97;;;2.45;;
46767;SDS011;69007;48.978;18.066;2023-04-03T16:36:38;5.15;;;2.60;;
46767;SDS011;69007;48.978;18.066;2023-04-03T16:39:04;5.18;;;2.72;;
46767;SDS011;69007;48.978;18.066;2023-04-03T16:41:29;7.95;;;3.30;;
46767;SDS011;69007;48.978;18.066;2023-04-03T16:43:55;5.45;;;2.95;;
46767;SDS011;69007;48.978;18.066;2023-04-03T16:46:20;7.65;;;4.22;;